createdAt,value
2023-05-19T00:03:52.613Z,70.50
2023-05-19T00:08:57.670Z,70.89
2023-05-19T00:13:59.457Z,71.14
2023-05-19T00:19:00.211Z,71.45
2023-05-19T00:24:00.681Z,71.90
2023-05-19T00:28:59.700Z,71.96
2023-05-19T00:33:58.789Z,72.18
2023-05-19T00:38:57.846Z,72.29
2023-05-19T00:43:57.358Z,72.40
2023-05-19T00:48:56.684Z,72.66
2023-05-19T00:53:56.445Z,72.86
2023-05-19T00:58:56.793Z,73.04
2023-05-19T01:03:59.107Z,73.29
2023-05-19T01:08:59.284Z,73.54
2023-05-19T01:13:58.973Z,73.66
2023-05-19T01:19:12.426Z,73.82
2023-05-19T01:24:35.622Z,74.04
2023-05-19T01:29:56.201Z,74.29
2023-05-19T01:34:57.257Z,74.58
2023-05-19T01:39:57.286Z,74.76
2023-05-19T01:44:57.710Z,74.90
2023-05-19T01:49:58.806Z,75.04
2023-05-19T01:54:59.133Z,75.23
2023-05-19T02:00:17.792Z,75.41
2023-05-19T02:05:32.857Z,75.61
2023-05-19T02:10:38.044Z,75.78
2023-05-19T02:15:46.497Z,75.85
2023-05-19T02:20:46.509Z,75.92
2023-05-19T02:25:46.344Z,76.10
2023-05-19T02:30:45.801Z,76.16
2023-05-19T02:35:45.580Z,76.27
2023-05-19T02:40:47.074Z,76.36
2023-05-19T02:45:46.506Z,76.43
2023-05-19T02:50:45.972Z,76.54
2023-05-19T02:55:45.617Z,76.64
2023-05-19T03:00:45.603Z,76.81
2023-05-19T03:05:45.101Z,77.01
2023-05-19T03:10:44.562Z,77.18
2023-05-19T03:15:45.139Z,77.26
2023-05-19T03:20:44.948Z,77.47
2023-05-19T03:25:44.308Z,77.76
2023-05-19T03:30:44.165Z,78.00
2023-05-19T03:35:46.707Z,78.16
2023-05-19T03:40:46.519Z,78.30
2023-05-19T03:45:45.320Z,78.30
2023-05-19T03:51:10.924Z,78.33
2023-05-19T03:56:14.160Z,78.46
2023-05-19T04:01:14.477Z,78.50
2023-05-19T04:06:14.727Z,78.66
2023-05-19T04:11:15.158Z,78.85
2023-05-19T04:16:14.753Z,78.91
2023-05-19T04:21:14.205Z,79.00
2023-05-19T04:26:15.093Z,79.08
2023-05-19T04:31:14.597Z,79.13
2023-05-19T04:36:17.751Z,79.29
2023-05-19T04:41:17.683Z,79.49
2023-05-19T04:46:17.182Z,79.42
2023-05-19T04:51:18.253Z,79.50
2023-05-19T04:56:17.511Z,79.51
2023-05-19T05:01:17.342Z,79.38
2023-05-19T05:06:16.860Z,79.37
2023-05-19T05:11:18.519Z,79.42
2023-05-19T05:16:21.732Z,79.36
2023-05-19T05:21:23.857Z,79.22
2023-05-19T05:26:24.439Z,79.00
2023-05-19T05:31:25.040Z,79.03
2023-05-19T05:36:25.041Z,78.97
2023-05-19T05:41:24.687Z,78.82
2023-05-19T05:46:27.664Z,78.68
2023-05-19T05:51:30.384Z,78.87
2023-05-19T05:56:33.981Z,78.86
2023-05-19T06:01:35.846Z,79.00
2023-05-19T06:06:36.148Z,78.69
2023-05-19T06:11:35.419Z,78.71
2023-05-19T06:16:38.440Z,78.63
2023-05-19T06:21:38.260Z,78.46
2023-05-19T06:26:37.276Z,77.95
2023-05-19T06:31:36.907Z,77.71
2023-05-19T06:36:42.827Z,77.63
2023-05-19T06:41:42.271Z,77.38
2023-05-19T06:46:42.206Z,77.21
2023-05-19T06:51:41.607Z,76.79
2023-05-19T06:56:40.939Z,76.61
2023-05-19T07:01:40.478Z,76.73
2023-05-19T07:06:40.853Z,76.33
2023-05-19T07:11:41.094Z,76.22
2023-05-19T07:16:41.100Z,76.50
2023-05-19T07:21:40.659Z,76.42
2023-05-19T07:26:40.218Z,76.38
2023-05-19T07:31:40.157Z,76.63
2023-05-19T07:36:39.122Z,76.74
2023-05-19T07:41:38.332Z,76.49
2023-05-19T07:46:38.286Z,76.13
2023-05-19T07:51:37.630Z,75.72
2023-05-19T07:56:36.517Z,75.40
2023-05-19T08:01:36.218Z,75.65
2023-05-19T08:06:35.570Z,75.54
2023-05-19T08:11:35.285Z,75.59
2023-05-19T08:16:34.838Z,75.23
2023-05-19T08:21:35.756Z,75.19
2023-05-19T08:26:37.072Z,75.22
2023-05-19T08:31:37.460Z,75.01
2023-05-19T08:36:36.993Z,74.89
2023-05-19T08:41:36.161Z,74.99
2023-05-19T08:46:36.673Z,74.76
2023-05-19T08:51:48.727Z,74.46
2023-05-19T08:56:50.850Z,74.14
2023-05-19T09:01:51.522Z,74.54
2023-05-19T09:06:51.813Z,74.71
2023-05-19T09:11:51.925Z,74.79
2023-05-19T09:16:53.373Z,74.71
2023-05-19T09:22:04.815Z,74.61
2023-05-19T09:27:04.137Z,74.04
2023-05-19T09:32:05.309Z,74.03
2023-05-19T09:37:05.313Z,74.01
2023-05-19T09:42:09.434Z,73.91
2023-05-19T09:47:11.401Z,73.94
2023-05-19T09:52:16.478Z,73.90
2023-05-19T09:57:16.270Z,73.63
2023-05-19T10:02:21.834Z,73.32
2023-05-19T10:07:22.359Z,73.04
2023-05-19T10:12:23.838Z,72.56
2023-05-19T10:17:23.520Z,72.32
2023-05-19T10:22:24.019Z,71.93
2023-05-19T10:27:24.951Z,71.78
2023-05-19T10:32:30.113Z,71.35
2023-05-19T10:37:43.325Z,71.43
2023-05-19T10:42:55.117Z,71.09
2023-05-19T10:47:55.984Z,70.31
2023-05-19T10:53:00.396Z,70.17
2023-05-19T10:58:00.990Z,70.04
2023-05-19T11:03:19.042Z,69.23
2023-05-19T11:08:19.060Z,69.04
2023-05-19T11:13:31.424Z,69.46
2023-05-19T11:18:35.073Z,69.29
2023-05-19T11:23:44.089Z,68.15
2023-05-19T11:28:46.799Z,67.50
2023-05-19T11:33:47.444Z,67.29
2023-05-19T11:38:50.911Z,66.75
2023-05-19T11:43:57.568Z,66.36
2023-05-19T11:48:59.383Z,65.95
2023-05-19T11:53:58.612Z,66.08
2023-05-19T11:58:59.380Z,66.27
2023-05-19T12:03:58.516Z,66.13
2023-05-19T12:08:59.291Z,66.03
2023-05-19T12:14:02.527Z,65.42
2023-05-19T12:19:01.829Z,65.33
2023-05-19T12:24:01.761Z,64.78
2023-05-19T12:29:01.787Z,64.31
2023-05-19T12:34:01.864Z,64.22
2023-05-19T12:39:01.135Z,64.11
2023-05-19T12:44:01.324Z,63.55
2023-05-19T12:49:03.941Z,63.56
2023-05-19T12:54:05.990Z,63.56
2023-05-19T12:59:06.550Z,63.67
2023-05-19T13:04:06.657Z,63.49
2023-05-19T13:09:07.348Z,63.78
2023-05-19T13:14:06.374Z,63.85
2023-05-19T13:19:06.350Z,63.91
2023-05-19T13:24:07.364Z,64.07
2023-05-19T13:29:06.628Z,64.01
2023-05-19T13:34:06.020Z,63.58
2023-05-19T13:39:05.499Z,63.71
2023-05-19T13:44:06.123Z,64.01
2023-05-19T13:49:05.246Z,64.29
2023-05-19T13:54:04.704Z,64.34
2023-05-19T13:59:04.224Z,64.36
2023-05-19T14:04:04.418Z,64.34
2023-05-19T14:09:04.569Z,64.44
2023-05-19T14:14:04.257Z,64.18
2023-05-19T14:19:02.908Z,64.30
2023-05-19T14:24:02.351Z,64.53
2023-05-19T14:29:02.592Z,64.91
2023-05-19T14:34:02.697Z,64.82
2023-05-19T14:39:03.230Z,65.06
2023-05-19T14:44:02.491Z,64.93
2023-05-19T14:49:01.598Z,65.15
2023-05-19T14:54:02.428Z,65.17
2023-05-19T14:59:01.465Z,65.51
2023-05-19T15:04:01.791Z,65.63
2023-05-19T15:09:01.713Z,65.79
2023-05-19T15:14:00.891Z,65.89
2023-05-19T15:19:00.465Z,65.82
2023-05-19T15:23:59.690Z,65.89
2023-05-19T15:28:59.792Z,66.11
2023-05-19T15:33:59.810Z,66.26
2023-05-19T15:38:58.449Z,66.40
2023-05-19T15:44:00.561Z,66.19
2023-05-19T15:49:01.053Z,66.29
2023-05-19T15:54:00.835Z,66.76
2023-05-19T15:59:00.259Z,66.99
2023-05-19T16:04:00.877Z,67.14
2023-05-19T16:09:02.471Z,67.42
2023-05-19T16:14:02.956Z,67.56
2023-05-19T16:19:03.282Z,67.71
2023-05-19T16:24:02.886Z,67.78
2023-05-19T16:29:03.074Z,68.16
2023-05-19T16:34:02.498Z,68.39
2023-05-19T16:39:02.114Z,68.73
2023-05-19T16:44:02.517Z,68.64
2023-05-19T16:49:02.390Z,68.84
2023-05-19T16:54:02.925Z,69.14
2023-05-19T16:59:02.703Z,69.36
2023-05-19T17:04:02.424Z,69.61
2023-05-19T17:09:02.055Z,69.90
2023-05-19T17:14:07.924Z,70.05
2023-05-19T17:19:07.998Z,70.29
2023-05-19T17:24:09.198Z,70.48
2023-05-19T17:29:08.409Z,70.75
2023-05-19T17:34:07.487Z,70.88
2023-05-19T17:39:07.601Z,71.03
2023-05-19T17:44:08.002Z,71.15
2023-05-19T17:49:07.569Z,71.33
2023-05-19T17:54:09.607Z,71.49
2023-05-19T17:59:12.427Z,71.65
2023-05-19T18:04:16.137Z,71.88
2023-05-19T18:09:17.961Z,72.11
2023-05-19T18:14:17.045Z,72.28
2023-05-19T18:19:15.814Z,72.46
2023-05-19T18:24:15.371Z,72.70
2023-05-19T18:29:15.973Z,72.95
2023-05-19T18:34:15.332Z,73.19
2023-05-19T18:39:14.715Z,73.40
2023-05-19T18:44:14.568Z,73.58
2023-05-19T18:49:14.164Z,73.75
2023-05-19T18:54:13.670Z,73.99
2023-05-19T18:59:13.000Z,74.07
2023-05-19T19:04:12.264Z,74.08
2023-05-19T19:09:11.204Z,74.11
2023-05-19T19:14:10.508Z,74.18
2023-05-19T19:19:10.137Z,74.21
2023-05-19T19:24:11.054Z,74.24
2023-05-19T19:29:10.143Z,74.32
2023-05-19T19:34:11.420Z,74.41
2023-05-19T19:39:10.892Z,74.51
2023-05-19T19:44:10.596Z,74.58
2023-05-19T19:49:10.013Z,74.65
2023-05-19T19:54:09.711Z,74.84
2023-05-19T19:59:08.771Z,74.92
2023-05-19T20:04:08.833Z,75.01
2023-05-19T20:09:09.261Z,75.15
2023-05-19T20:14:08.422Z,75.33
2023-05-19T20:19:09.315Z,75.35
2023-05-19T20:24:09.430Z,75.41
2023-05-19T20:29:09.333Z,75.57
2023-05-19T20:34:09.149Z,75.60
2023-05-19T20:39:09.814Z,75.57
2023-05-19T20:44:10.600Z,75.57
2023-05-19T20:49:10.509Z,75.81
2023-05-19T20:54:09.864Z,75.94
2023-05-19T20:59:08.898Z,76.04
2023-05-19T21:04:08.018Z,76.02
2023-05-19T21:09:07.133Z,76.07
2023-05-19T21:14:07.783Z,76.10
2023-05-19T21:19:07.887Z,76.11
2023-05-19T21:24:07.375Z,76.14
2023-05-19T21:29:06.592Z,76.21
2023-05-19T21:34:07.669Z,76.19
2023-05-19T21:39:07.489Z,76.21
2023-05-19T21:44:07.510Z,76.20
2023-05-19T21:49:08.612Z,76.24
2023-05-19T21:54:07.929Z,76.21
2023-05-19T21:59:07.589Z,76.25
2023-05-19T22:04:07.360Z,76.21
2023-05-19T22:09:07.489Z,76.30
2023-05-19T22:14:07.096Z,76.21
2023-05-19T22:19:06.759Z,76.22
2023-05-19T22:24:05.738Z,76.32
2023-05-19T22:29:04.864Z,76.40
2023-05-19T22:34:04.271Z,76.52
2023-05-19T22:39:04.258Z,76.50
2023-05-19T22:44:03.424Z,76.44
2023-05-19T22:49:03.416Z,76.42
2023-05-19T22:54:02.880Z,76.42
2023-05-19T22:59:02.194Z,76.41
2023-05-19T23:04:00.738Z,76.39
2023-05-19T23:09:07.882Z,76.27
2023-05-19T23:14:07.602Z,76.29
2023-05-19T23:19:06.943Z,76.46
2023-05-19T23:24:06.697Z,76.50
2023-05-19T23:29:06.395Z,76.61
2023-05-19T23:34:06.131Z,76.75
2023-05-19T23:39:06.599Z,76.76
2023-05-19T23:44:05.920Z,76.82
2023-05-19T23:49:05.855Z,76.83
2023-05-19T23:54:05.018Z,76.84
2023-05-19T23:59:04.202Z,76.85
